createdAt,value
2023-01-30T00:01:31.014Z,17.29
2023-01-30T00:03:58.152Z,17.27
2023-01-30T00:06:25.415Z,17.24
2023-01-30T00:08:52.984Z,17.21
2023-01-30T00:11:21.059Z,17.20
2023-01-30T00:13:50.046Z,17.18
2023-01-30T00:16:18.611Z,17.17
2023-01-30T00:18:45.734Z,17.16
2023-01-30T00:21:14.795Z,17.16
2023-01-30T00:23:42.456Z,17.16
2023-01-30T00:26:10.242Z,17.16
2023-01-30T00:28:39.894Z,17.16
2023-01-30T00:31:07.647Z,17.17
2023-01-30T00:33:37.226Z,17.18
2023-01-30T00:36:04.997Z,17.19
2023-01-30T00:38:32.107Z,17.19
2023-01-30T00:40:59.259Z,17.20
2023-01-30T00:43:44.862Z,17.20
2023-01-30T00:46:40.036Z,17.20
2023-01-30T00:49:07.098Z,17.21
2023-01-30T00:51:34.873Z,17.22
2023-01-30T00:54:02.015Z,17.23
2023-01-30T00:56:29.082Z,17.24
2023-01-30T00:58:57.751Z,17.24
2023-01-30T01:01:24.887Z,17.25
2023-01-30T01:03:52.332Z,17.24
2023-01-30T01:06:19.489Z,17.24
2023-01-30T01:08:46.565Z,17.24
2023-01-30T01:11:25.035Z,17.23
2023-01-30T01:13:54.679Z,17.22
2023-01-30T01:16:22.220Z,17.21
2023-01-30T01:18:49.729Z,17.20
2023-01-30T01:21:19.345Z,17.19
2023-01-30T01:23:52.363Z,17.18
2023-01-30T01:26:20.633Z,17.18
2023-01-30T01:28:48.309Z,17.18
2023-01-30T01:31:17.850Z,17.17
2023-01-30T01:33:45.024Z,17.16
2023-01-30T01:36:13.596Z,17.16
2023-01-30T01:38:47.084Z,17.16
2023-01-30T01:41:16.340Z,17.15
2023-01-30T01:44:08.977Z,17.15
2023-01-30T01:46:42.955Z,17.15
2023-01-30T01:49:25.326Z,17.15
2023-01-30T01:52:15.331Z,17.15
2023-01-30T01:54:48.490Z,17.15
2023-01-30T01:57:21.141Z,17.15
2023-01-30T02:00:11.923Z,17.16
2023-01-30T02:02:48.297Z,17.16
2023-01-30T02:05:19.454Z,17.17
2023-01-30T02:07:58.567Z,17.17
2023-01-30T02:10:59.096Z,17.17
2023-01-30T02:13:28.713Z,17.17
2023-01-30T02:15:58.868Z,17.16
2023-01-30T02:18:26.522Z,17.17
2023-01-30T02:21:15.460Z,17.17
2023-01-30T02:23:57.575Z,17.17
2023-01-30T02:26:43.100Z,17.15
2023-01-30T02:29:31.907Z,17.13
2023-01-30T02:32:30.817Z,17.12
2023-01-30T02:35:05.686Z,17.09
2023-01-30T02:37:50.885Z,17.09
2023-01-30T02:40:42.753Z,17.09
2023-01-30T02:43:25.207Z,17.09
2023-01-30T02:46:15.791Z,17.10
2023-01-30T02:48:47.112Z,17.10
2023-01-30T02:51:25.823Z,17.10
2023-01-30T02:53:54.251Z,17.09
2023-01-30T02:56:21.669Z,17.09
2023-01-30T02:59:07.598Z,17.10
2023-01-30T03:01:44.338Z,17.11
2023-01-30T03:04:11.634Z,17.12
2023-01-30T03:06:47.727Z,17.13
2023-01-30T03:09:31.097Z,17.13
2023-01-30T03:11:58.426Z,17.15
2023-01-30T03:14:35.124Z,17.14
2023-01-30T03:17:06.892Z,17.14
2023-01-30T03:19:34.934Z,17.14
2023-01-30T03:22:02.001Z,17.14
2023-01-30T03:24:29.505Z,17.14
2023-01-30T03:27:05.941Z,17.15
2023-01-30T03:29:33.372Z,17.16
2023-01-30T03:32:00.706Z,17.16
2023-01-30T03:34:27.857Z,17.15
2023-01-30T03:36:55.899Z,17.13
2023-01-30T03:39:24.917Z,17.12
2023-01-30T03:41:53.769Z,17.11
2023-01-30T03:44:21.831Z,17.10
2023-01-30T03:46:49.476Z,17.11
2023-01-30T03:49:16.635Z,17.10
2023-01-30T03:51:43.887Z,17.08
2023-01-30T03:54:11.149Z,17.07
2023-01-30T03:56:38.606Z,17.05
2023-01-30T03:59:05.640Z,17.03
2023-01-30T04:01:38.829Z,17.01
2023-01-30T04:04:06.408Z,16.99
2023-01-30T04:06:35.172Z,16.97
2023-01-30T04:09:03.507Z,16.96
2023-01-30T04:11:51.913Z,16.93
2023-01-30T04:14:19.580Z,16.92
2023-01-30T04:17:12.741Z,16.90
2023-01-30T04:20:06.843Z,16.89
2023-01-30T04:22:35.065Z,16.88
2023-01-30T04:25:02.771Z,16.87
2023-01-30T04:27:30.643Z,16.86
2023-01-30T04:30:12.137Z,16.86
2023-01-30T04:32:40.829Z,16.86
2023-01-30T04:35:10.109Z,16.87
2023-01-30T04:37:40.146Z,16.88
2023-01-30T04:40:07.882Z,16.89
2023-01-30T04:42:35.764Z,16.90
2023-01-30T04:45:29.368Z,16.91
2023-01-30T04:47:58.024Z,16.90
2023-01-30T04:50:25.420Z,16.90
2023-01-30T04:52:52.535Z,16.91
2023-01-30T04:55:20.277Z,16.92
2023-01-30T04:57:47.632Z,16.91
2023-01-30T05:00:14.863Z,16.91
2023-01-30T05:02:49.024Z,16.91
2023-01-30T05:05:16.289Z,16.92
2023-01-30T05:07:43.930Z,16.92
2023-01-30T05:10:11.681Z,16.92
2023-01-30T05:12:38.757Z,16.93
2023-01-30T05:15:06.948Z,16.94
2023-01-30T05:17:35.214Z,16.95
2023-01-30T05:20:02.547Z,16.96
2023-01-30T05:22:29.711Z,16.98
2023-01-30T05:24:56.757Z,16.98
2023-01-30T05:27:23.824Z,16.98
2023-01-30T05:29:51.103Z,16.97
2023-01-30T05:32:19.861Z,16.96
2023-01-30T05:34:49.424Z,16.96
2023-01-30T05:37:16.443Z,16.96
2023-01-30T05:39:43.610Z,16.96
2023-01-30T05:42:10.958Z,16.98
2023-01-30T05:44:38.175Z,16.99
2023-01-30T05:47:05.239Z,17.00
2023-01-30T05:49:32.303Z,17.03
2023-01-30T05:51:59.365Z,17.05
2023-01-30T05:54:26.482Z,17.06
2023-01-30T05:56:53.515Z,17.08
2023-01-30T05:59:20.622Z,17.08
2023-01-30T06:01:47.698Z,17.09
2023-01-30T06:04:14.920Z,17.10
2023-01-30T06:06:41.933Z,17.12
2023-01-30T06:09:11.273Z,17.13
2023-01-30T06:11:38.435Z,17.13
2023-01-30T06:14:05.727Z,17.14
2023-01-30T06:16:33.381Z,17.15
2023-01-30T06:19:00.616Z,17.16
2023-01-30T06:21:27.724Z,17.19
2023-01-30T06:23:54.687Z,17.22
2023-01-30T06:26:22.103Z,17.25
2023-01-30T06:28:50.067Z,17.27
2023-01-30T06:31:18.782Z,17.27
2023-01-30T06:33:45.773Z,17.27
2023-01-30T06:36:13.180Z,17.27
2023-01-30T06:38:40.476Z,17.27
2023-01-30T06:41:07.875Z,17.26
2023-01-30T06:43:34.845Z,17.27
2023-01-30T06:46:01.929Z,17.28
2023-01-30T06:48:28.952Z,17.28
2023-01-30T06:50:56.013Z,17.28
2023-01-30T06:53:25.570Z,17.28
2023-01-30T06:55:52.728Z,17.29
2023-01-30T06:58:20.111Z,17.29
2023-01-30T07:00:47.150Z,17.29
2023-01-30T07:03:18.745Z,17.29
2023-01-30T07:05:47.855Z,17.30
2023-01-30T07:08:16.430Z,17.29
2023-01-30T07:10:44.517Z,17.29
2023-01-30T07:13:11.873Z,17.30
2023-01-30T07:15:38.894Z,17.30
2023-01-30T07:18:06.180Z,17.31
2023-01-30T07:20:33.214Z,17.31
2023-01-30T07:23:00.456Z,17.32
2023-01-30T07:25:29.048Z,17.31
2023-01-30T07:28:00.253Z,17.31
2023-01-30T07:30:30.420Z,17.32
2023-01-30T07:32:59.204Z,17.31
2023-01-30T07:35:28.328Z,17.31
2023-01-30T07:37:55.485Z,17.30
2023-01-30T07:40:22.952Z,17.30
2023-01-30T07:43:19.332Z,17.30
2023-01-30T07:45:48.432Z,17.32
2023-01-30T07:48:18.387Z,17.31
2023-01-30T07:50:46.111Z,17.33
2023-01-30T07:53:15.567Z,17.32
2023-01-30T07:55:43.178Z,17.32
2023-01-30T07:58:15.330Z,17.32
2023-01-30T08:00:43.087Z,17.32
2023-01-30T08:03:14.835Z,17.32
2023-01-30T08:05:41.903Z,17.32
2023-01-30T08:08:09.158Z,17.31
2023-01-30T08:10:36.098Z,17.31
2023-01-30T08:13:03.272Z,17.31
2023-01-30T08:15:32.128Z,17.31
2023-01-30T08:17:59.626Z,17.32
2023-01-30T08:20:28.145Z,17.33
2023-01-30T08:22:55.650Z,17.33
2023-01-30T08:25:22.784Z,17.33
2023-01-30T08:27:49.778Z,17.34
2023-01-30T08:30:17.615Z,17.33
2023-01-30T08:32:45.038Z,17.33
2023-01-30T08:35:12.087Z,17.33
2023-01-30T08:37:40.641Z,17.33
2023-01-30T08:40:08.709Z,17.33
2023-01-30T08:42:35.935Z,17.33
2023-01-30T08:45:03.213Z,17.34
2023-01-30T08:47:31.448Z,17.34
2023-01-30T08:49:58.532Z,17.34
2023-01-30T08:52:25.554Z,17.35
2023-01-30T08:54:52.570Z,17.35
2023-01-30T08:57:19.694Z,17.35
2023-01-30T08:59:46.730Z,17.35
2023-01-30T09:02:13.836Z,17.35
2023-01-30T09:04:40.861Z,17.34
2023-01-30T09:07:07.892Z,17.34
2023-01-30T09:09:35.547Z,17.34
2023-01-30T09:12:02.679Z,17.34
2023-01-30T09:14:29.765Z,17.35
2023-01-30T09:16:56.835Z,17.35
2023-01-30T09:19:28.417Z,17.36
2023-01-30T09:21:56.202Z,17.36
2023-01-30T09:24:26.937Z,17.37
2023-01-30T09:26:57.772Z,17.38
2023-01-30T09:29:28.834Z,17.38
2023-01-30T09:31:56.918Z,17.38
2023-01-30T09:34:27.832Z,17.39
2023-01-30T09:37:00.424Z,17.39
2023-01-30T09:39:28.576Z,17.39
2023-01-30T09:41:59.077Z,17.39
2023-01-30T09:44:51.017Z,17.39
2023-01-30T09:47:45.429Z,17.39
2023-01-30T09:50:24.088Z,17.36
2023-01-30T09:53:00.628Z,17.33
2023-01-30T09:55:30.017Z,17.31
2023-01-30T09:58:01.461Z,17.29
2023-01-30T10:00:37.696Z,17.27
2023-01-30T10:03:25.393Z,17.25
2023-01-30T10:06:06.566Z,17.24
2023-01-30T10:08:57.847Z,17.22
2023-01-30T10:11:56.137Z,17.21
2023-01-30T10:14:38.156Z,17.19
2023-01-30T10:17:17.336Z,17.17
2023-01-30T10:20:03.326Z,17.17
2023-01-30T10:22:33.339Z,17.15
2023-01-30T10:25:19.209Z,17.15
2023-01-30T10:27:58.194Z,17.13
2023-01-30T10:30:25.937Z,17.13
2023-01-30T10:33:02.940Z,17.12
2023-01-30T10:35:37.587Z,17.11
2023-01-30T10:38:33.301Z,17.11
2023-01-30T10:41:19.079Z,17.11
2023-01-30T10:44:13.691Z,17.10
2023-01-30T10:47:01.996Z,17.10
2023-01-30T10:49:38.077Z,17.11
2023-01-30T10:52:17.312Z,17.12
2023-01-30T10:55:04.567Z,17.12
2023-01-30T10:57:39.267Z,17.11
2023-01-30T11:00:16.856Z,17.11
2023-01-30T11:02:53.293Z,17.11
2023-01-30T11:05:27.754Z,17.11
2023-01-30T11:07:54.808Z,17.11
2023-01-30T11:10:27.380Z,17.10
2023-01-30T11:12:59.194Z,17.10
2023-01-30T11:15:40.188Z,17.09
2023-01-30T11:18:50.983Z,17.09
2023-01-30T11:21:08.939Z,17.08
2023-01-30T11:23:40.898Z,17.08
2023-01-30T11:26:11.725Z,17.08
2023-01-30T11:28:45.173Z,17.07
2023-01-30T11:31:38.821Z,17.07
2023-01-30T11:34:16.808Z,17.07
2023-01-30T11:36:47.439Z,17.06
2023-01-30T11:39:14.806Z,17.06
2023-01-30T11:41:57.148Z,17.05
2023-01-30T11:44:28.043Z,17.06
2023-01-30T11:46:59.995Z,17.07
2023-01-30T11:49:44.677Z,17.06
2023-01-30T11:52:19.227Z,17.06
2023-01-30T11:54:48.166Z,17.06
2023-01-30T11:57:17.816Z,17.05
2023-01-30T12:00:03.799Z,17.05
2023-01-30T12:02:38.649Z,17.04
2023-01-30T12:05:17.600Z,17.04
2023-01-30T12:07:46.942Z,17.04
2023-01-30T12:10:20.554Z,17.04
2023-01-30T12:12:52.085Z,17.03
2023-01-30T12:15:19.165Z,17.03
2023-01-30T12:18:07.917Z,17.03
2023-01-30T12:20:59.657Z,17.03
2023-01-30T12:23:50.963Z,17.03
2023-01-30T12:26:28.268Z,17.02
2023-01-30T12:29:17.737Z,17.02
2023-01-30T12:31:54.915Z,17.02
2023-01-30T12:34:25.686Z,17.03
2023-01-30T12:37:22.496Z,17.02
2023-01-30T12:40:22.729Z,17.02
2023-01-30T12:43:05.030Z,17.01
2023-01-30T12:45:39.842Z,17.01
2023-01-30T12:48:27.909Z,17.00
2023-01-30T12:50:58.137Z,17.00
2023-01-30T12:53:34.193Z,16.99
2023-01-30T12:56:16.396Z,16.98
2023-01-30T12:58:59.219Z,16.98
2023-01-30T13:01:53.597Z,16.97
2023-01-30T13:04:46.992Z,16.97
2023-01-30T13:07:48.326Z,16.97
2023-01-30T13:10:31.137Z,16.98
2023-01-30T13:13:07.206Z,16.98
2023-01-30T13:15:49.970Z,16.98
2023-01-30T13:18:29.880Z,16.99
2023-01-30T13:21:09.310Z,17.00
2023-01-30T13:24:04.627Z,17.00
2023-01-30T13:26:36.556Z,16.99
2023-01-30T13:29:13.854Z,16.99
2023-01-30T13:31:52.700Z,17.00
2023-01-30T13:34:36.651Z,17.02
2023-01-30T13:37:11.352Z,17.03
2023-01-30T13:39:52.647Z,17.04
2023-01-30T13:42:40.607Z,17.04
2023-01-30T13:45:17.245Z,17.04
2023-01-30T13:47:53.539Z,17.05
2023-01-30T13:51:05.232Z,17.07
2023-01-30T13:53:49.903Z,17.07
2023-01-30T13:56:41.241Z,17.07
2023-01-30T13:59:28.328Z,17.08
2023-01-30T14:02:04.594Z,17.08
2023-01-30T14:04:40.844Z,17.07
2023-01-30T14:07:25.232Z,17.06
2023-01-30T14:10:09.271Z,17.06
2023-01-30T14:12:48.893Z,17.05
2023-01-30T14:15:16.707Z,17.04
2023-01-30T14:18:20.794Z,17.04
2023-01-30T14:20:50.627Z,17.04
2023-01-30T14:23:30.130Z,17.04
2023-01-30T14:25:57.867Z,17.04
2023-01-30T14:28:25.433Z,17.04
2023-01-30T14:30:54.577Z,17.04
2023-01-30T14:33:21.653Z,17.05
2023-01-30T14:35:58.701Z,17.05
2023-01-30T14:38:27.703Z,17.04
2023-01-30T14:41:01.112Z,17.04
2023-01-30T14:43:39.208Z,17.05
2023-01-30T14:46:18.825Z,17.05
2023-01-30T14:49:05.330Z,17.05
2023-01-30T14:51:48.232Z,17.07
2023-01-30T14:54:15.429Z,17.10
2023-01-30T14:56:51.601Z,17.12
2023-01-30T14:59:27.167Z,17.15
2023-01-30T15:02:31.368Z,17.15
2023-01-30T15:05:10.392Z,17.16
2023-01-30T15:07:46.086Z,17.16
2023-01-30T15:10:31.534Z,17.16
2023-01-30T15:13:23.782Z,17.16
2023-01-30T15:16:15.934Z,17.16
2023-01-30T15:18:42.957Z,17.17
2023-01-30T15:21:40.109Z,17.17
2023-01-30T15:24:44.640Z,17.18
2023-01-30T15:27:14.451Z,17.17
2023-01-30T15:29:47.297Z,17.17
2023-01-30T15:32:23.699Z,17.18
2023-01-30T15:34:55.266Z,17.18
2023-01-30T15:37:47.130Z,17.18
2023-01-30T15:40:20.427Z,17.18
2023-01-30T15:43:27.958Z,17.18
2023-01-30T15:46:32.103Z,17.19
2023-01-30T15:49:31.767Z,17.21
2023-01-30T15:52:04.317Z,17.23
2023-01-30T15:54:31.848Z,17.27
2023-01-30T15:57:01.005Z,17.29
2023-01-30T15:59:38.581Z,17.31
2023-01-30T16:02:14.186Z,17.32
2023-01-30T16:04:41.280Z,17.33
2023-01-30T16:07:35.049Z,17.34
2023-01-30T16:10:07.727Z,17.36
2023-01-30T16:12:41.137Z,17.36
2023-01-30T16:15:35.118Z,17.38
2023-01-30T16:18:19.218Z,17.38
2023-01-30T16:21:02.851Z,17.39
2023-01-30T16:23:43.097Z,17.40
2023-01-30T16:26:18.239Z,17.40
2023-01-30T16:28:45.547Z,17.41
2023-01-30T16:31:12.859Z,17.41
2023-01-30T16:33:40.116Z,17.42
2023-01-30T16:36:27.076Z,17.42
2023-01-30T16:38:55.227Z,17.43
2023-01-30T16:41:28.233Z,17.42
2023-01-30T16:44:24.201Z,17.43
2023-01-30T16:47:28.798Z,17.43
2023-01-30T16:49:56.968Z,17.43
2023-01-30T16:52:37.152Z,17.43
2023-01-30T16:55:08.407Z,17.43
2023-01-30T16:57:50.630Z,17.43
2023-01-30T17:00:35.658Z,17.42
2023-01-30T17:03:18.895Z,17.43
2023-01-30T17:05:48.647Z,17.42
2023-01-30T17:08:31.947Z,17.43
2023-01-30T17:11:00.566Z,17.43
2023-01-30T17:13:43.415Z,17.43
2023-01-30T17:16:25.387Z,17.43
2023-01-30T17:18:55.267Z,17.43
2023-01-30T17:21:24.743Z,17.43
2023-01-30T17:23:56.256Z,17.44
2023-01-30T17:26:23.546Z,17.44
2023-01-30T17:28:50.592Z,17.43
2023-01-30T17:31:18.580Z,17.43
2023-01-30T17:33:45.755Z,17.44
2023-01-30T17:36:27.172Z,17.44
2023-01-30T17:38:55.059Z,17.44
2023-01-30T17:41:24.527Z,17.45
2023-01-30T17:43:51.524Z,17.45
2023-01-30T17:46:19.009Z,17.45
2023-01-30T17:48:46.055Z,17.45
2023-01-30T17:51:14.694Z,17.45
2023-01-30T17:53:42.067Z,17.44
2023-01-30T17:56:18.031Z,17.45
2023-01-30T17:58:45.069Z,17.45
2023-01-30T18:01:15.338Z,17.44
2023-01-30T18:03:43.882Z,17.44
2023-01-30T18:06:14.586Z,17.44
2023-01-30T18:08:42.276Z,17.44
2023-01-30T18:11:12.129Z,17.47
2023-01-30T18:13:39.978Z,17.48
2023-01-30T18:16:07.443Z,17.48
2023-01-30T18:18:34.566Z,17.48
2023-01-30T18:21:01.669Z,17.48
2023-01-30T18:23:29.010Z,17.49
2023-01-30T18:25:56.024Z,17.49
2023-01-30T18:28:22.965Z,17.50
2023-01-30T18:30:50.145Z,17.50
2023-01-30T18:33:17.212Z,17.50
2023-01-30T18:35:44.748Z,17.51
2023-01-30T18:38:11.916Z,17.50
2023-01-30T18:40:40.097Z,17.51
2023-01-30T18:43:07.164Z,17.51
2023-01-30T18:45:34.157Z,17.51
2023-01-30T18:48:01.249Z,17.52
2023-01-30T18:50:28.337Z,17.53
2023-01-30T18:52:55.504Z,17.53
2023-01-30T18:55:25.456Z,17.52
2023-01-30T18:57:52.875Z,17.51
2023-01-30T19:00:21.748Z,17.51
2023-01-30T19:02:55.799Z,17.49
2023-01-30T19:05:23.057Z,17.47
2023-01-30T19:07:50.303Z,17.45
2023-01-30T19:10:18.100Z,17.43
2023-01-30T19:13:04.243Z,17.41
2023-01-30T19:15:31.368Z,17.41
2023-01-30T19:17:58.655Z,17.41
2023-01-30T19:20:26.523Z,17.42
2023-01-30T19:22:55.180Z,17.42
2023-01-30T19:25:22.361Z,17.43
2023-01-30T19:27:49.634Z,17.43
2023-01-30T19:30:17.560Z,17.45
2023-01-30T19:32:45.151Z,17.45
2023-01-30T19:35:12.303Z,17.45
2023-01-30T19:37:39.526Z,17.45
2023-01-30T19:40:11.399Z,17.44
2023-01-30T19:42:40.386Z,17.43
2023-01-30T19:45:11.671Z,17.42
2023-01-30T19:47:38.696Z,17.40
2023-01-30T19:50:06.684Z,17.40
2023-01-30T19:52:33.712Z,17.40
2023-01-30T19:55:00.741Z,17.40
2023-01-30T19:57:27.760Z,17.41
2023-01-30T19:59:54.877Z,17.40
2023-01-30T20:02:21.927Z,17.40
2023-01-30T20:04:48.905Z,17.40
2023-01-30T20:07:16.125Z,17.38
2023-01-30T20:09:43.292Z,17.36
2023-01-30T20:12:10.529Z,17.35
2023-01-30T20:14:37.525Z,17.34
2023-01-30T20:17:04.521Z,17.33
2023-01-30T20:19:31.677Z,17.33
2023-01-30T20:21:58.753Z,17.33
2023-01-30T20:24:25.893Z,17.32
2023-01-30T20:26:53.059Z,17.31
2023-01-30T20:29:20.173Z,17.29
2023-01-30T20:31:47.377Z,17.28
2023-01-30T20:34:15.327Z,17.27
2023-01-30T20:36:42.424Z,17.26
2023-01-30T20:39:09.585Z,17.25
2023-01-30T20:41:37.996Z,17.26
2023-01-30T20:44:07.422Z,17.27
2023-01-30T20:46:41.850Z,17.27
2023-01-30T20:49:20.946Z,17.28
2023-01-30T20:51:50.879Z,17.27
2023-01-30T20:54:20.046Z,17.27
2023-01-30T20:56:49.878Z,17.26
2023-01-30T20:59:24.498Z,17.26
2023-01-30T21:01:52.316Z,17.26
2023-01-30T21:04:20.999Z,17.25
2023-01-30T21:06:48.305Z,17.24
2023-01-30T21:09:18.857Z,17.23
2023-01-30T21:11:46.807Z,17.22
2023-01-30T21:14:14.138Z,17.21
2023-01-30T21:16:42.404Z,17.20
2023-01-30T21:19:13.837Z,17.19
2023-01-30T21:21:54.311Z,17.18
2023-01-30T21:24:28.268Z,17.17
2023-01-30T21:26:56.384Z,17.17
2023-01-30T21:29:26.385Z,17.16
2023-01-30T21:31:54.340Z,17.15
2023-01-30T21:34:22.318Z,17.15
2023-01-30T21:37:09.321Z,17.16
2023-01-30T21:39:54.912Z,17.15
2023-01-30T21:42:40.899Z,17.15
2023-01-30T21:45:08.562Z,17.13
2023-01-30T21:47:35.765Z,17.13
2023-01-30T21:50:04.417Z,17.12
2023-01-30T21:52:33.467Z,17.12
2023-01-30T21:55:01.468Z,17.11
2023-01-30T21:57:28.492Z,17.11
2023-01-30T21:59:55.751Z,17.13
2023-01-30T22:02:22.856Z,17.14
2023-01-30T22:04:50.109Z,17.14
2023-01-30T22:07:17.226Z,17.14
2023-01-30T22:09:44.391Z,17.13
2023-01-30T22:12:11.430Z,17.13
2023-01-30T22:14:38.807Z,17.13
2023-01-30T22:17:06.466Z,17.12
2023-01-30T22:19:35.851Z,17.11
2023-01-30T22:22:03.701Z,17.11
2023-01-30T22:24:31.272Z,17.11
2023-01-30T22:26:59.157Z,17.13
2023-01-30T22:29:26.289Z,17.13
2023-01-30T22:31:53.587Z,17.14
2023-01-30T22:34:22.256Z,17.14
2023-01-30T22:36:49.598Z,17.13
2023-01-30T22:39:16.596Z,17.13
2023-01-30T22:41:43.697Z,17.12
2023-01-30T22:44:11.170Z,17.11
2023-01-30T22:46:40.331Z,17.11
2023-01-30T22:49:08.920Z,17.11
2023-01-30T22:51:41.243Z,17.13
2023-01-30T22:54:16.101Z,17.15
2023-01-30T22:56:45.968Z,17.16
2023-01-30T22:59:14.099Z,17.16
2023-01-30T23:01:43.586Z,17.16
2023-01-30T23:04:15.820Z,17.16
2023-01-30T23:06:43.207Z,17.16
2023-01-30T23:09:13.648Z,17.18
2023-01-30T23:11:43.758Z,17.19
2023-01-30T23:14:17.110Z,17.20
2023-01-30T23:16:45.929Z,17.21
2023-01-30T23:19:13.732Z,17.22
2023-01-30T23:21:45.634Z,17.22
2023-01-30T23:24:20.665Z,17.23
2023-01-30T23:26:52.004Z,17.23
2023-01-30T23:29:20.796Z,17.23
2023-01-30T23:31:48.402Z,17.23
2023-01-30T23:34:18.679Z,17.23
2023-01-30T23:36:46.661Z,17.23
2023-01-30T23:39:14.847Z,17.23
2023-01-30T23:41:43.006Z,17.22
2023-01-30T23:44:10.581Z,17.22
2023-01-30T23:46:40.275Z,17.22
2023-01-30T23:49:10.054Z,17.21
2023-01-30T23:51:39.189Z,17.18
2023-01-30T23:54:07.399Z,17.17
2023-01-30T23:56:36.402Z,17.16
2023-01-30T23:59:04.510Z,17.15
